sensor_id;sensor_type;location;lat;lon;timestamp;temperature;humidity
67598;DHT22;62026;39.230;9.122;2022-09-03T00:00:53;27.30;66.20
67598;DHT22;62026;39.230;9.122;2022-09-03T00:05:51;27.30;66.50
67598;DHT22;62026;39.230;9.122;2022-09-03T00:14:11;27.30;66.60
67598;DHT22;62026;39.230;9.122;2022-09-03T00:16:44;27.30;66.40
67598;DHT22;62026;39.230;9.122;2022-09-03T00:19:15;27.30;66.20
67598;DHT22;62026;39.230;9.122;2022-09-03T00:21:44;27.30;65.80
67598;DHT22;62026;39.230;9.122;2022-09-03T00:24:13;27.20;65.70
67598;DHT22;62026;39.230;9.122;2022-09-03T00:26:45;27.10;65.60
67598;DHT22;62026;39.230;9.122;2022-09-03T00:29:20;27.20;65.60
67598;DHT22;62026;39.230;9.122;2022-09-03T00:31:53;27.10;65.50
67598;DHT22;62026;39.230;9.122;2022-09-03T00:36:56;27.10;65.60
67598;DHT22;62026;39.230;9.122;2022-09-03T00:39:23;27.10;65.70
67598;DHT22;62026;39.230;9.122;2022-09-03T00:53:36;27.20;65.00
67598;DHT22;62026;39.230;9.122;2022-09-03T01:01:35;27.20;64.90
67598;DHT22;62026;39.230;9.122;2022-09-03T01:06:52;27.20;64.60
67598;DHT22;62026;39.230;9.122;2022-09-03T01:18:00;27.10;63.50
67598;DHT22;62026;39.230;9.122;2022-09-03T01:29:00;27.00;63.60
67598;DHT22;62026;39.230;9.122;2022-09-03T01:31:35;27.00;63.70
67598;DHT22;62026;39.230;9.122;2022-09-03T01:42:26;27.00;64.20
67598;DHT22;62026;39.230;9.122;2022-09-03T02:01:02;27.00;64.40
67598;DHT22;62026;39.230;9.122;2022-09-03T02:03:38;27.00;64.40
67598;DHT22;62026;39.230;9.122;2022-09-03T02:06:08;27.00;64.40
67598;DHT22;62026;39.230;9.122;2022-09-03T02:08:35;27.00;64.40
67598;DHT22;62026;39.230;9.122;2022-09-03T02:11:02;27.00;64.60
67598;DHT22;62026;39.230;9.122;2022-09-03T02:13:37;27.00;64.60
67598;DHT22;62026;39.230;9.122;2022-09-03T02:16:09;27.00;64.50
67598;DHT22;62026;39.230;9.122;2022-09-03T02:18:57;27.00;64.30
67598;DHT22;62026;39.230;9.122;2022-09-03T02:21:27;27.00;64.50
67598;DHT22;62026;39.230;9.122;2022-09-03T02:24:03;27.00;64.80
67598;DHT22;62026;39.230;9.122;2022-09-03T02:26:30;27.00;64.80
67598;DHT22;62026;39.230;9.122;2022-09-03T02:28:56;27.00;64.60
67598;DHT22;62026;39.230;9.122;2022-09-03T02:31:23;27.00;64.50
67598;DHT22;62026;39.230;9.122;2022-09-03T02:33:49;27.00;64.30
67598;DHT22;62026;39.230;9.122;2022-09-03T02:36:17;27.00;64.20
67598;DHT22;62026;39.230;9.122;2022-09-03T02:38:46;27.00;63.80
67598;DHT22;62026;39.230;9.122;2022-09-03T02:41:12;27.00;62.80
67598;DHT22;62026;39.230;9.122;2022-09-03T02:44:01;27.00;62.80
67598;DHT22;62026;39.230;9.122;2022-09-03T02:46:33;27.00;61.60
67598;DHT22;62026;39.230;9.122;2022-09-03T02:49:03;26.90;61.60
67598;DHT22;62026;39.230;9.122;2022-09-03T02:51:36;26.90;61.40
67598;DHT22;62026;39.230;9.122;2022-09-03T02:54:05;27.00;61.20
67598;DHT22;62026;39.230;9.122;2022-09-03T02:56:31;26.80;61.70
67598;DHT22;62026;39.230;9.122;2022-09-03T02:58:57;26.80;61.50
67598;DHT22;62026;39.230;9.122;2022-09-03T03:01:23;26.80;61.10
67598;DHT22;62026;39.230;9.122;2022-09-03T03:03:49;26.90;61.00
67598;DHT22;62026;39.230;9.122;2022-09-03T03:06:16;26.90;60.90
67598;DHT22;62026;39.230;9.122;2022-09-03T03:08:45;26.90;61.20
67598;DHT22;62026;39.230;9.122;2022-09-03T03:11:11;26.90;61.30
67598;DHT22;62026;39.230;9.122;2022-09-03T03:13:40;27.00;61.20
67598;DHT22;62026;39.230;9.122;2022-09-03T03:16:06;26.90;61.40
67598;DHT22;62026;39.230;9.122;2022-09-03T03:18:32;26.90;61.60
67598;DHT22;62026;39.230;9.122;2022-09-03T03:23:36;26.90;62.10
67598;DHT22;62026;39.230;9.122;2022-09-03T03:26:03;26.90;62.10
67598;DHT22;62026;39.230;9.122;2022-09-03T03:28:31;26.90;62.10
67598;DHT22;62026;39.230;9.122;2022-09-03T03:31:08;26.90;62.30
67598;DHT22;62026;39.230;9.122;2022-09-03T03:33:34;27.00;62.30
67598;DHT22;62026;39.230;9.122;2022-09-03T03:36:07;27.00;62.40
67598;DHT22;62026;39.230;9.122;2022-09-03T03:38:35;27.00;62.60
67598;DHT22;62026;39.230;9.122;2022-09-03T03:41:06;26.90;62.70
67598;DHT22;62026;39.230;9.122;2022-09-03T03:43:36;26.90;62.90
67598;DHT22;62026;39.230;9.122;2022-09-03T03:46:02;27.00;62.40
67598;DHT22;62026;39.230;9.122;2022-09-03T03:48:29;26.90;62.30
67598;DHT22;62026;39.230;9.122;2022-09-03T03:51:06;27.00;61.70
67598;DHT22;62026;39.230;9.122;2022-09-03T03:53:34;26.90;60.90
67598;DHT22;62026;39.230;9.122;2022-09-03T03:56:02;26.90;61.10
67598;DHT22;62026;39.230;9.122;2022-09-03T03:58:31;26.90;61.00
67598;DHT22;62026;39.230;9.122;2022-09-03T04:01:12;26.90;60.80
67598;DHT22;62026;39.230;9.122;2022-09-03T04:03:41;26.80;60.90
67598;DHT22;62026;39.230;9.122;2022-09-03T04:06:08;26.80;60.70
67598;DHT22;62026;39.230;9.122;2022-09-03T04:08:38;26.80;60.20
67598;DHT22;62026;39.230;9.122;2022-09-03T04:11:07;26.80;59.80
67598;DHT22;62026;39.230;9.122;2022-09-03T04:13:35;26.80;59.80
67598;DHT22;62026;39.230;9.122;2022-09-03T04:16:07;26.80;60.00
67598;DHT22;62026;39.230;9.122;2022-09-03T04:18:35;26.80;60.70
67598;DHT22;62026;39.230;9.122;2022-09-03T04:21:24;26.70;61.50
67598;DHT22;62026;39.230;9.122;2022-09-03T04:23:50;26.70;61.50
67598;DHT22;62026;39.230;9.122;2022-09-03T04:26:21;26.70;61.90
67598;DHT22;62026;39.230;9.122;2022-09-03T04:28:48;26.80;62.80
67598;DHT22;62026;39.230;9.122;2022-09-03T04:31:15;26.80;63.30
67598;DHT22;62026;39.230;9.122;2022-09-03T04:33:42;26.80;63.50
67598;DHT22;62026;39.230;9.122;2022-09-03T04:38:40;26.80;63.20
67598;DHT22;62026;39.230;9.122;2022-09-03T04:41:08;26.80;63.30
67598;DHT22;62026;39.230;9.122;2022-09-03T04:43:35;26.80;63.40
67598;DHT22;62026;39.230;9.122;2022-09-03T04:46:02;26.80;63.40
67598;DHT22;62026;39.230;9.122;2022-09-03T04:48:29;26.80;63.70
67598;DHT22;62026;39.230;9.122;2022-09-03T04:53:33;26.80;64.70
67598;DHT22;62026;39.230;9.122;2022-09-03T04:56:11;26.80;64.70
67598;DHT22;62026;39.230;9.122;2022-09-03T04:58:41;26.80;64.40
67598;DHT22;62026;39.230;9.122;2022-09-03T05:01:09;26.70;64.00
67598;DHT22;62026;39.230;9.122;2022-09-03T05:03:35;26.80;64.00
67598;DHT22;62026;39.230;9.122;2022-09-03T05:06:02;26.80;64.20
67598;DHT22;62026;39.230;9.122;2022-09-03T05:08:30;26.80;64.50
67598;DHT22;62026;39.230;9.122;2022-09-03T05:10:57;26.80;64.60
67598;DHT22;62026;39.230;9.122;2022-09-03T05:13:25;26.80;64.40
67598;DHT22;62026;39.230;9.122;2022-09-03T05:15:51;26.80;64.40
67598;DHT22;62026;39.230;9.122;2022-09-03T05:18:17;26.80;64.40
67598;DHT22;62026;39.230;9.122;2022-09-03T05:20:43;26.80;64.50
67598;DHT22;62026;39.230;9.122;2022-09-03T05:23:09;26.80;64.90
67598;DHT22;62026;39.230;9.122;2022-09-03T05:25:35;26.70;65.40
67598;DHT22;62026;39.230;9.122;2022-09-03T05:28:02;26.80;65.70
67598;DHT22;62026;39.230;9.122;2022-09-03T05:30:28;26.80;66.00
67598;DHT22;62026;39.230;9.122;2022-09-03T05:32:55;26.80;66.30
67598;DHT22;62026;39.230;9.122;2022-09-03T05:35:21;26.90;67.00
67598;DHT22;62026;39.230;9.122;2022-09-03T05:37:47;26.90;67.50
67598;DHT22;62026;39.230;9.122;2022-09-03T05:40:13;26.90;67.70
67598;DHT22;62026;39.230;9.122;2022-09-03T05:42:39;26.90;67.90
67598;DHT22;62026;39.230;9.122;2022-09-03T05:45:08;26.90;67.80
67598;DHT22;62026;39.230;9.122;2022-09-03T05:47:36;26.90;67.60
67598;DHT22;62026;39.230;9.122;2022-09-03T05:50:04;26.90;67.10
67598;DHT22;62026;39.230;9.122;2022-09-03T05:52:32;26.90;66.70
67598;DHT22;62026;39.230;9.122;2022-09-03T05:54:58;26.90;66.60
67598;DHT22;62026;39.230;9.122;2022-09-03T05:57:24;26.90;66.20
67598;DHT22;62026;39.230;9.122;2022-09-03T05:59:50;26.80;66.20
67598;DHT22;62026;39.230;9.122;2022-09-03T06:02:15;26.80;66.40
67598;DHT22;62026;39.230;9.122;2022-09-03T06:04:43;26.80;66.40
67598;DHT22;62026;39.230;9.122;2022-09-03T06:07:09;26.80;66.60
67598;DHT22;62026;39.230;9.122;2022-09-03T06:09:35;26.90;66.70
67598;DHT22;62026;39.230;9.122;2022-09-03T06:12:01;26.90;66.60
67598;DHT22;62026;39.230;9.122;2022-09-03T06:14:27;26.90;66.90
67598;DHT22;62026;39.230;9.122;2022-09-03T06:16:53;26.90;66.90
67598;DHT22;62026;39.230;9.122;2022-09-03T06:19:21;26.90;66.90
67598;DHT22;62026;39.230;9.122;2022-09-03T06:21:47;26.80;67.20
67598;DHT22;62026;39.230;9.122;2022-09-03T06:24:14;26.80;67.50
67598;DHT22;62026;39.230;9.122;2022-09-03T06:26:44;26.90;67.50
67598;DHT22;62026;39.230;9.122;2022-09-03T06:29:11;26.90;67.60
67598;DHT22;62026;39.230;9.122;2022-09-03T06:31:37;26.90;67.70
67598;DHT22;62026;39.230;9.122;2022-09-03T06:34:04;26.90;67.80
67598;DHT22;62026;39.230;9.122;2022-09-03T06:36:30;27.00;67.80
67598;DHT22;62026;39.230;9.122;2022-09-03T06:38:56;27.00;67.70
67598;DHT22;62026;39.230;9.122;2022-09-03T06:41:24;27.00;67.80
67598;DHT22;62026;39.230;9.122;2022-09-03T06:43:58;27.00;67.90
67598;DHT22;62026;39.230;9.122;2022-09-03T06:46:30;27.00;67.90
67598;DHT22;62026;39.230;9.122;2022-09-03T06:48:57;27.10;68.10
67598;DHT22;62026;39.230;9.122;2022-09-03T06:51:25;27.10;68.50
67598;DHT22;62026;39.230;9.122;2022-09-03T06:53:53;27.20;68.90
67598;DHT22;62026;39.230;9.122;2022-09-03T06:56:23;27.20;69.10
67598;DHT22;62026;39.230;9.122;2022-09-03T06:58:56;27.30;69.60
67598;DHT22;62026;39.230;9.122;2022-09-03T07:01:24;27.30;70.10
67598;DHT22;62026;39.230;9.122;2022-09-03T07:03:56;27.30;70.30
67598;DHT22;62026;39.230;9.122;2022-09-03T07:06:24;27.40;71.20
67598;DHT22;62026;39.230;9.122;2022-09-03T07:08:54;27.30;71.60
67598;DHT22;62026;39.230;9.122;2022-09-03T07:11:22;27.50;71.70
67598;DHT22;62026;39.230;9.122;2022-09-03T07:13:51;27.60;71.80
67598;DHT22;62026;39.230;9.122;2022-09-03T07:16:21;27.60;72.00
67598;DHT22;62026;39.230;9.122;2022-09-03T07:18:52;27.70;71.90
67598;DHT22;62026;39.230;9.122;2022-09-03T07:21:22;27.70;72.80
67598;DHT22;62026;39.230;9.122;2022-09-03T07:23:53;27.80;72.90
67598;DHT22;62026;39.230;9.122;2022-09-03T07:26:21;27.80;73.50
67598;DHT22;62026;39.230;9.122;2022-09-03T07:28:52;27.80;73.80
67598;DHT22;62026;39.230;9.122;2022-09-03T07:31:22;28.00;73.60
67598;DHT22;62026;39.230;9.122;2022-09-03T07:33:53;28.10;73.30
67598;DHT22;62026;39.230;9.122;2022-09-03T07:36:20;28.20;73.50
67598;DHT22;62026;39.230;9.122;2022-09-03T07:38:48;28.30;73.10
67598;DHT22;62026;39.230;9.122;2022-09-03T07:41:14;28.30;72.90
67598;DHT22;62026;39.230;9.122;2022-09-03T07:43:41;28.40;72.90
67598;DHT22;62026;39.230;9.122;2022-09-03T07:46:09;28.50;72.70
67598;DHT22;62026;39.230;9.122;2022-09-03T07:48:40;28.40;72.60
67598;DHT22;62026;39.230;9.122;2022-09-03T07:51:08;28.40;72.60
67598;DHT22;62026;39.230;9.122;2022-09-03T07:53:34;28.40;73.00
67598;DHT22;62026;39.230;9.122;2022-09-03T07:56:02;28.50;72.80
67598;DHT22;62026;39.230;9.122;2022-09-03T07:58:30;28.50;72.60
67598;DHT22;62026;39.230;9.122;2022-09-03T08:00:57;28.60;72.90
67598;DHT22;62026;39.230;9.122;2022-09-03T08:03:24;28.60;73.00
67598;DHT22;62026;39.230;9.122;2022-09-03T08:05:50;28.70;72.40
67598;DHT22;62026;39.230;9.122;2022-09-03T08:08:16;28.70;72.60
67598;DHT22;62026;39.230;9.122;2022-09-03T08:10:42;28.60;72.90
67598;DHT22;62026;39.230;9.122;2022-09-03T08:13:09;28.60;73.20
67598;DHT22;62026;39.230;9.122;2022-09-03T08:15:35;28.40;73.90
67598;DHT22;62026;39.230;9.122;2022-09-03T08:18:02;28.40;73.90
67598;DHT22;62026;39.230;9.122;2022-09-03T08:20:28;28.40;73.80
67598;DHT22;62026;39.230;9.122;2022-09-03T08:23:01;28.40;73.90
67598;DHT22;62026;39.230;9.122;2022-09-03T08:25:27;28.40;73.70
67598;DHT22;62026;39.230;9.122;2022-09-03T08:27:56;28.40;73.50
67598;DHT22;62026;39.230;9.122;2022-09-03T08:30:23;28.40;73.30
67598;DHT22;62026;39.230;9.122;2022-09-03T08:32:49;28.50;73.10
67598;DHT22;62026;39.230;9.122;2022-09-03T08:35:16;28.40;72.60
67598;DHT22;62026;39.230;9.122;2022-09-03T08:37:42;28.40;72.60
67598;DHT22;62026;39.230;9.122;2022-09-03T08:40:08;28.40;73.00
67598;DHT22;62026;39.230;9.122;2022-09-03T08:45:35;28.40;73.80
67598;DHT22;62026;39.230;9.122;2022-09-03T08:48:13;28.40;73.70
67598;DHT22;62026;39.230;9.122;2022-09-03T08:50:44;28.40;73.80
67598;DHT22;62026;39.230;9.122;2022-09-03T08:56:20;28.60;73.80
67598;DHT22;62026;39.230;9.122;2022-09-03T08:58:51;28.70;73.80
67598;DHT22;62026;39.230;9.122;2022-09-03T09:01:35;29.00;73.50
67598;DHT22;62026;39.230;9.122;2022-09-03T09:25:48;29.80;69.90
67598;DHT22;62026;39.230;9.122;2022-09-03T09:28:19;29.80;70.00
67598;DHT22;62026;39.230;9.122;2022-09-03T09:30:50;30.20;69.00
67598;DHT22;62026;39.230;9.122;2022-09-03T09:33:19;30.20;68.50
67598;DHT22;62026;39.230;9.122;2022-09-03T09:35:46;30.00;69.00
67598;DHT22;62026;39.230;9.122;2022-09-03T09:38:13;29.80;69.50
67598;DHT22;62026;39.230;9.122;2022-09-03T09:40:40;29.60;70.40
67598;DHT22;62026;39.230;9.122;2022-09-03T09:43:12;29.60;70.40
67598;DHT22;62026;39.230;9.122;2022-09-03T09:45:41;29.50;70.50
67598;DHT22;62026;39.230;9.122;2022-09-03T09:48:12;29.50;70.30
67598;DHT22;62026;39.230;9.122;2022-09-03T09:50:40;29.40;70.60
67598;DHT22;62026;39.230;9.122;2022-09-03T09:53:07;29.50;70.90
67598;DHT22;62026;39.230;9.122;2022-09-03T09:55:52;29.40;71.00
67598;DHT22;62026;39.230;9.122;2022-09-03T09:58:24;29.40;71.00
67598;DHT22;62026;39.230;9.122;2022-09-03T10:03:51;29.30;71.30
67598;DHT22;62026;39.230;9.122;2022-09-03T10:06:22;29.20;71.30
67598;DHT22;62026;39.230;9.122;2022-09-03T10:09:13;29.20;71.20
67598;DHT22;62026;39.230;9.122;2022-09-03T10:11:45;29.30;71.10
67598;DHT22;62026;39.230;9.122;2022-09-03T10:14:22;29.20;71.10
67598;DHT22;62026;39.230;9.122;2022-09-03T10:16:59;29.20;71.30
67598;DHT22;62026;39.230;9.122;2022-09-03T10:19:39;29.20;71.20
67598;DHT22;62026;39.230;9.122;2022-09-03T10:22:31;29.10;71.50
67598;DHT22;62026;39.230;9.122;2022-09-03T10:25:05;29.10;71.80
67598;DHT22;62026;39.230;9.122;2022-09-03T10:27:33;29.10;71.40
67598;DHT22;62026;39.230;9.122;2022-09-03T10:30:01;29.10;71.60
67598;DHT22;62026;39.230;9.122;2022-09-03T10:35:23;29.10;71.30
67598;DHT22;62026;39.230;9.122;2022-09-03T10:40:35;29.00;71.30
67598;DHT22;62026;39.230;9.122;2022-09-03T10:43:17;29.00;71.60
67598;DHT22;62026;39.230;9.122;2022-09-03T10:48:15;29.00;72.50
67598;DHT22;62026;39.230;9.122;2022-09-03T10:51:09;29.00;72.40
67598;DHT22;62026;39.230;9.122;2022-09-03T10:53:50;28.90;72.40
67598;DHT22;62026;39.230;9.122;2022-09-03T11:07:05;28.90;73.10
67598;DHT22;62026;39.230;9.122;2022-09-03T11:12:29;28.90;73.10
67598;DHT22;62026;39.230;9.122;2022-09-03T11:17:38;28.90;73.40
67598;DHT22;62026;39.230;9.122;2022-09-03T11:20:10;29.00;73.70
67598;DHT22;62026;39.230;9.122;2022-09-03T11:22:41;29.10;73.30
67598;DHT22;62026;39.230;9.122;2022-09-03T11:25:10;29.10;73.00
67598;DHT22;62026;39.230;9.122;2022-09-03T11:32:48;29.10;72.60
67598;DHT22;62026;39.230;9.122;2022-09-03T11:35:27;29.20;72.50
67598;DHT22;62026;39.230;9.122;2022-09-03T11:38:03;29.10;71.90
67598;DHT22;62026;39.230;9.122;2022-09-03T11:40:34;29.10;72.50
67598;DHT22;62026;39.230;9.122;2022-09-03T11:43:05;29.10;71.10
67598;DHT22;62026;39.230;9.122;2022-09-03T11:45:34;29.30;69.90
67598;DHT22;62026;39.230;9.122;2022-09-03T11:48:15;29.40;69.10
67598;DHT22;62026;39.230;9.122;2022-09-03T11:50:50;29.50;68.70
67598;DHT22;62026;39.230;9.122;2022-09-03T11:58:29;29.50;68.40
67598;DHT22;62026;39.230;9.122;2022-09-03T12:01:00;29.50;68.90
67598;DHT22;62026;39.230;9.122;2022-09-03T12:03:28;29.50;67.40
67598;DHT22;62026;39.230;9.122;2022-09-03T12:08:41;29.50;66.10
67598;DHT22;62026;39.230;9.122;2022-09-03T12:14:01;29.60;65.50
67598;DHT22;62026;39.230;9.122;2022-09-03T12:19:28;29.70;65.40
67598;DHT22;62026;39.230;9.122;2022-09-03T12:22:11;29.70;65.70
67598;DHT22;62026;39.230;9.122;2022-09-03T12:24:39;29.70;66.30
67598;DHT22;62026;39.230;9.122;2022-09-03T12:27:11;29.70;65.80
67598;DHT22;62026;39.230;9.122;2022-09-03T12:29:59;29.70;66.70
67598;DHT22;62026;39.230;9.122;2022-09-03T12:32:34;29.70;65.90
67598;DHT22;62026;39.230;9.122;2022-09-03T12:35:17;29.80;64.90
67598;DHT22;62026;39.230;9.122;2022-09-03T12:37:45;29.90;64.00
67598;DHT22;62026;39.230;9.122;2022-09-03T12:40:16;29.80;64.10
67598;DHT22;62026;39.230;9.122;2022-09-03T12:42:52;29.80;63.10
67598;DHT22;62026;39.230;9.122;2022-09-03T12:45:20;29.80;62.40
67598;DHT22;62026;39.230;9.122;2022-09-03T12:47:48;29.80;62.90
67598;DHT22;62026;39.230;9.122;2022-09-03T12:50:23;29.90;63.30
67598;DHT22;62026;39.230;9.122;2022-09-03T12:52:53;29.90;62.30
67598;DHT22;62026;39.230;9.122;2022-09-03T12:55:35;29.90;60.80
67598;DHT22;62026;39.230;9.122;2022-09-03T13:00:35;29.80;60.90
67598;DHT22;62026;39.230;9.122;2022-09-03T13:03:07;29.90;60.40
67598;DHT22;62026;39.230;9.122;2022-09-03T13:06:06;29.90;61.80
67598;DHT22;62026;39.230;9.122;2022-09-03T13:08:39;29.80;61.30
67598;DHT22;62026;39.230;9.122;2022-09-03T13:11:10;29.90;62.10
67598;DHT22;62026;39.230;9.122;2022-09-03T13:13:49;29.90;62.00
67598;DHT22;62026;39.230;9.122;2022-09-03T13:22:08;30.20;60.30
67598;DHT22;62026;39.230;9.122;2022-09-03T13:30:31;30.30;60.60
67598;DHT22;62026;39.230;9.122;2022-09-03T13:33:12;30.20;60.30
67598;DHT22;62026;39.230;9.122;2022-09-03T13:36:07;30.20;61.00
67598;DHT22;62026;39.230;9.122;2022-09-03T13:38:59;30.30;61.00
67598;DHT22;62026;39.230;9.122;2022-09-03T13:41:36;30.20;62.00
67598;DHT22;62026;39.230;9.122;2022-09-03T13:44:19;30.30;62.50
67598;DHT22;62026;39.230;9.122;2022-09-03T13:47:00;30.20;62.80
67598;DHT22;62026;39.230;9.122;2022-09-03T13:49:40;30.30;62.40
67598;DHT22;62026;39.230;9.122;2022-09-03T13:52:33;30.40;61.70
67598;DHT22;62026;39.230;9.122;2022-09-03T13:57:45;30.40;60.80
67598;DHT22;62026;39.230;9.122;2022-09-03T14:00:39;30.40;60.70
67598;DHT22;62026;39.230;9.122;2022-09-03T14:03:11;30.30;60.80
67598;DHT22;62026;39.230;9.122;2022-09-03T14:08:40;30.40;59.30
67598;DHT22;62026;39.230;9.122;2022-09-03T14:11:34;30.70;58.10
67598;DHT22;62026;39.230;9.122;2022-09-03T14:16:59;30.90;57.90
67598;DHT22;62026;39.230;9.122;2022-09-03T14:19:52;30.90;57.70
67598;DHT22;62026;39.230;9.122;2022-09-03T14:25:09;31.00;56.70
67598;DHT22;62026;39.230;9.122;2022-09-03T14:27:39;30.90;57.20
67598;DHT22;62026;39.230;9.122;2022-09-03T14:30:16;30.90;57.70
67598;DHT22;62026;39.230;9.122;2022-09-03T14:38:31;30.70;58.90
67598;DHT22;62026;39.230;9.122;2022-09-03T14:46:48;30.50;63.30
67598;DHT22;62026;39.230;9.122;2022-09-03T14:49:21;30.50;62.90
67598;DHT22;62026;39.230;9.122;2022-09-03T14:52:18;30.50;62.20
67598;DHT22;62026;39.230;9.122;2022-09-03T15:06:13;30.60;54.80
67598;DHT22;62026;39.230;9.122;2022-09-03T15:11:25;31.20;49.60
67598;DHT22;62026;39.230;9.122;2022-09-03T15:14:08;31.30;48.70
67598;DHT22;62026;39.230;9.122;2022-09-03T15:16:57;31.30;47.50
67598;DHT22;62026;39.230;9.122;2022-09-03T15:27:17;31.10;46.60
67598;DHT22;62026;39.230;9.122;2022-09-03T15:30:10;31.00;46.40
67598;DHT22;62026;39.230;9.122;2022-09-03T15:35:32;31.20;46.00
67598;DHT22;62026;39.230;9.122;2022-09-03T15:40:56;31.00;44.70
67598;DHT22;62026;39.230;9.122;2022-09-03T15:43:30;31.10;44.50
67598;DHT22;62026;39.230;9.122;2022-09-03T15:45:59;31.10;44.00
67598;DHT22;62026;39.230;9.122;2022-09-03T16:12:35;31.00;41.10
67598;DHT22;62026;39.230;9.122;2022-09-03T16:23:09;30.90;41.00
67598;DHT22;62026;39.230;9.122;2022-09-03T16:25:46;30.90;40.80
67598;DHT22;62026;39.230;9.122;2022-09-03T16:28:26;30.90;40.70
67598;DHT22;62026;39.230;9.122;2022-09-03T16:31:12;30.80;41.10
67598;DHT22;62026;39.230;9.122;2022-09-03T16:33:55;30.80;41.30
67598;DHT22;62026;39.230;9.122;2022-09-03T16:36:46;30.70;42.20
67598;DHT22;62026;39.230;9.122;2022-09-03T16:50:37;30.70;45.20
67598;DHT22;62026;39.230;9.122;2022-09-03T16:53:14;30.70;45.60
67598;DHT22;62026;39.230;9.122;2022-09-03T17:08:53;30.50;46.70
67598;DHT22;62026;39.230;9.122;2022-09-03T17:11:50;30.50;46.70
67598;DHT22;62026;39.230;9.122;2022-09-03T17:17:43;30.50;46.80
67598;DHT22;62026;39.230;9.122;2022-09-03T17:20:25;30.50;46.50
67598;DHT22;62026;39.230;9.122;2022-09-03T17:25:56;30.50;45.70
67598;DHT22;62026;39.230;9.122;2022-09-03T17:31:31;30.40;44.00
67598;DHT22;62026;39.230;9.122;2022-09-03T17:34:04;30.40;43.60
67598;DHT22;62026;39.230;9.122;2022-09-03T17:36:38;30.30;43.00
67598;DHT22;62026;39.230;9.122;2022-09-03T17:42:27;30.30;42.80
67598;DHT22;62026;39.230;9.122;2022-09-03T17:56:28;30.20;44.10
67598;DHT22;62026;39.230;9.122;2022-09-03T17:59:10;30.20;44.80
67598;DHT22;62026;39.230;9.122;2022-09-03T18:02:26;30.20;45.10
67598;DHT22;62026;39.230;9.122;2022-09-03T18:04:44;30.20;44.70
67598;DHT22;62026;39.230;9.122;2022-09-03T18:12:56;30.20;44.10
67598;DHT22;62026;39.230;9.122;2022-09-03T18:15:31;30.20;43.90
67598;DHT22;62026;39.230;9.122;2022-09-03T18:18:07;30.20;44.60
67598;DHT22;62026;39.230;9.122;2022-09-03T18:20:42;30.20;44.90
67598;DHT22;62026;39.230;9.122;2022-09-03T18:23:33;30.20;45.30
67598;DHT22;62026;39.230;9.122;2022-09-03T18:26:41;30.20;44.70
67598;DHT22;62026;39.230;9.122;2022-09-03T18:29:38;30.20;45.40
67598;DHT22;62026;39.230;9.122;2022-09-03T18:32:38;30.20;45.30
67598;DHT22;62026;39.230;9.122;2022-09-03T18:35:23;30.20;45.10
67598;DHT22;62026;39.230;9.122;2022-09-03T18:38:10;30.20;45.90
67598;DHT22;62026;39.230;9.122;2022-09-03T18:51:26;30.10;45.60
67598;DHT22;62026;39.230;9.122;2022-09-03T18:56:57;30.00;45.40
67598;DHT22;62026;39.230;9.122;2022-09-03T19:05:31;30.00;45.70
67598;DHT22;62026;39.230;9.122;2022-09-03T19:08:23;30.00;45.70
67598;DHT22;62026;39.230;9.122;2022-09-03T19:14:20;30.00;46.30
67598;DHT22;62026;39.230;9.122;2022-09-03T19:17:22;30.00;46.40
67598;DHT22;62026;39.230;9.122;2022-09-03T19:23:00;29.90;46.60
67598;DHT22;62026;39.230;9.122;2022-09-03T19:25:45;30.00;46.70
67598;DHT22;62026;39.230;9.122;2022-09-03T19:28:30;29.90;46.50
67598;DHT22;62026;39.230;9.122;2022-09-03T19:37:12;29.90;47.20
67598;DHT22;62026;39.230;9.122;2022-09-03T19:53:00;29.90;48.70
67598;DHT22;62026;39.230;9.122;2022-09-03T19:55:51;29.90;49.10
67598;DHT22;62026;39.230;9.122;2022-09-03T19:58:39;29.90;50.00
67598;DHT22;62026;39.230;9.122;2022-09-03T20:01:31;29.80;50.50
67598;DHT22;62026;39.230;9.122;2022-09-03T20:04:17;29.80;50.80
67598;DHT22;62026;39.230;9.122;2022-09-03T20:07:07;29.80;51.20
67598;DHT22;62026;39.230;9.122;2022-09-03T20:09:53;29.80;51.30
67598;DHT22;62026;39.230;9.122;2022-09-03T20:12:42;29.80;51.90
67598;DHT22;62026;39.230;9.122;2022-09-03T20:15:13;29.80;52.20
67598;DHT22;62026;39.230;9.122;2022-09-03T20:20:43;29.80;52.20
67598;DHT22;62026;39.230;9.122;2022-09-03T20:23:19;29.80;52.10
67598;DHT22;62026;39.230;9.122;2022-09-03T20:31:23;29.80;52.70
67598;DHT22;62026;39.230;9.122;2022-09-03T20:37:22;29.70;53.00
67598;DHT22;62026;39.230;9.122;2022-09-03T20:39:59;29.70;53.20
67598;DHT22;62026;39.230;9.122;2022-09-03T20:43:37;29.70;53.50
67598;DHT22;62026;39.230;9.122;2022-09-03T20:53:59;29.70;53.90
67598;DHT22;62026;39.230;9.122;2022-09-03T21:18:05;29.60;53.90
67598;DHT22;62026;39.230;9.122;2022-09-03T21:23:32;29.50;53.70
67598;DHT22;62026;39.230;9.122;2022-09-03T21:26:10;29.60;53.60
67598;DHT22;62026;39.230;9.122;2022-09-03T21:28:56;29.50;53.70
67598;DHT22;62026;39.230;9.122;2022-09-03T21:34:17;29.50;53.50
67598;DHT22;62026;39.230;9.122;2022-09-03T21:36:52;29.50;53.30
67598;DHT22;62026;39.230;9.122;2022-09-03T21:39:27;29.50;53.20
67598;DHT22;62026;39.230;9.122;2022-09-03T21:42:06;29.50;53.00
67598;DHT22;62026;39.230;9.122;2022-09-03T21:47:10;29.50;52.50
67598;DHT22;62026;39.230;9.122;2022-09-03T21:52:28;29.40;52.40
67598;DHT22;62026;39.230;9.122;2022-09-03T21:55:01;29.40;52.30
67598;DHT22;62026;39.230;9.122;2022-09-03T21:57:46;29.40;52.20
67598;DHT22;62026;39.230;9.122;2022-09-03T22:00:27;29.40;52.30
67598;DHT22;62026;39.230;9.122;2022-09-03T22:02:57;29.40;52.50
67598;DHT22;62026;39.230;9.122;2022-09-03T22:05:25;29.40;52.60
67598;DHT22;62026;39.230;9.122;2022-09-03T22:10:37;29.40;52.90
67598;DHT22;62026;39.230;9.122;2022-09-03T22:15:54;29.40;52.60
67598;DHT22;62026;39.230;9.122;2022-09-03T22:18:30;29.40;52.20
67598;DHT22;62026;39.230;9.122;2022-09-03T22:21:19;29.40;51.60
67598;DHT22;62026;39.230;9.122;2022-09-03T22:26:49;29.30;51.10
67598;DHT22;62026;39.230;9.122;2022-09-03T22:40:52;29.30;50.90
67598;DHT22;62026;39.230;9.122;2022-09-03T22:46:13;29.30;50.90
67598;DHT22;62026;39.230;9.122;2022-09-03T22:49:25;29.30;50.60
67598;DHT22;62026;39.230;9.122;2022-09-03T22:56:51;29.30;50.80
67598;DHT22;62026;39.230;9.122;2022-09-03T22:59:23;29.30;50.90
67598;DHT22;62026;39.230;9.122;2022-09-03T23:02:02;29.30;51.20
67598;DHT22;62026;39.230;9.122;2022-09-03T23:07:56;29.10;54.50
67598;DHT22;62026;39.230;9.122;2022-09-03T23:10:25;29.10;56.00
67598;DHT22;62026;39.230;9.122;2022-09-03T23:13:17;29.20;57.40
67598;DHT22;62026;39.230;9.122;2022-09-03T23:15:45;29.20;58.90
67598;DHT22;62026;39.230;9.122;2022-09-03T23:18:21;29.20;59.10
67598;DHT22;62026;39.230;9.122;2022-09-03T23:20:57;29.20;59.20